Latest Weather Observations for Frankston

IDV60801

Issued at 5:02 am EST Monday 27 April 2015 (issued every 30 minutes, with the page automatically refreshed every 10 minutes)

About weather observations | Map of weather stations | Latest weather observations for VIC | Other Formats
Station Details ID: 086371 Name: FRANKSTON AWS Lat: -38.15 Lon: 145.12 Height: 6.0 m
Data from the previous 72 hours. | See also: Recent months at Frankston
Date/Time
EST
Temp
°C
App
Temp
°C
Dew
Point
Rel
Hum
%
Delta-T
°C
Wind Press
QNH
hPa
Press
MSL
hPa
Rain
since 9 am
mm
Dir
 
Spd
km/h
Gust
km/h
Spd
kts
Gust
kts
27/05:00am 12.5 8.5 10.4 87 1.1 W 22 28 12 15 - - -
27/04:30am 12.3 9.5 10.0 86 1.2 SW 15 22 8 12 - - -
27/04:00am 12.1 10.1 10.0 87 1.1 WSW 11 17 6 9 - - -
27/03:30am 11.7 9.8 9.1 84 1.3 SSW 9 17 5 9 - - -
27/03:11am 12.7 8.8 10.8 88 1.0 WSW 22 39 12 21 - - -
27/03:00am 12.2 10.6 10.3 88 1.0 SW 9 17 5 9 - - -
27/02:30am 12.4 8.4 10.6 89 0.9 W 22 30 12 16 - - -
27/02:00am 12.3 7.2 10.5 89 0.9 W 28 33 15 18 - - -
27/01:30am 12.1 7.3 10.3 89 0.9 W 26 32 14 17 - - -
27/01:00am 12.5 7.4 10.6 88 1.0 W 28 33 15 18 - - -
27/12:30am 12.0 6.3 9.9 87 1.1 W 30 37 16 20 - - -
27/12:00am 12.6 7.0 10.3 86 1.2 W 30 35 16 19 - - -
 
Date/Time
EST
Temp
°C
App
Temp
°C
Dew
Point
Rel
Hum
%
Delta-T
°C
Wind Press
QNH
hPa
Press
MSL
hPa
Rain
since 9 am
mm
Dir
 
Spd
km/h
Gust
km/h
Spd
kts
Gust
kts
26/11:30pm 12.7 8.0 10.6 87 1.1 W 26 32 14 17 - - -
26/11:00pm 12.3 7.4 10.0 86 1.2 W 26 32 14 17 - - -
26/10:30pm 12.0 5.7 9.6 85 1.2 W 33 39 18 21 - - -
26/10:00pm 12.7 7.7 9.5 81 1.6 W 26 30 14 16 - - -
26/09:30pm 13.0 7.9 9.3 78 1.9 W 26 32 14 17 - - -
26/09:00pm 13.3 7.7 8.8 74 2.3 W 28 33 15 18 - - -
26/08:30pm 12.2 6.1 9.8 85 1.2 W 32 37 17 20 - - -
26/08:16pm 13.1 9.2 9.5 79 1.8 WSW 20 48 11 26 - - -
26/08:00pm 12.0 9.8 9.2 83 1.4 SW 11 17 6 9 - - -
26/07:30pm 13.4 9.7 9.3 76 2.1 W 19 24 10 13 - - -
26/07:00pm 13.3 8.3 9.5 78 1.9 WSW 26 33 14 18 - - -
26/06:30pm 13.4 7.0 9.3 76 2.1 W 33 43 18 23 - - -
26/06:00pm 12.2 6.2 8.7 79 1.7 SW 30 46 16 25 - - -
26/05:54pm 12.7 6.6 8.2 74 2.2 SW 30 56 16 30 - - -
26/05:30pm 14.1 7.4 7.4 64 3.3 WSW 32 41 17 22 - - -
26/05:00pm 14.2 9.9 7.9 66 3.1 SW 20 37 11 20 - - -
26/04:30pm 14.2 8.1 6.6 60 3.7 SW 28 35 15 19 - - -
26/04:00pm 14.1 7.5 8.5 69 2.8 WSW 33 43 18 23 - - -
26/03:30pm 14.2 7.4 7.5 64 3.3 WSW 33 41 18 22 - - -
26/03:00pm 13.3 7.4 9.2 76 2.1 WSW 30 37 16 20 - - -
26/02:30pm 13.1 5.6 8.0 71 2.5 SW 37 46 20 25 - - -
26/02:00pm 13.8 7.6 9.3 74 2.3 WSW 32 35 17 19 - - -
26/01:30pm 13.2 6.0 9.3 77 2.0 WSW 37 48 20 26 - - -
26/01:00pm 14.0 9.3 7.8 66 3.1 WSW 22 33 12 18 - - -
26/12:30pm 13.6 10.5 8.7 72 2.5 SW 15 20 8 11 - - -
26/12:00pm 12.3 10.5 9.5 83 1.4 SSW 9 17 5 9 - - -
26/11:45am 12.3 8.8 8.8 79 1.7 SW 17 37 9 20 - - -
26/11:30am 12.3 10.0 9.0 80 1.7 SSW 11 22 6 12 - - -
26/11:13am 12.4 9.4 7.5 72 2.4 SW 13 35 7 19 - - -
26/11:00am 13.0 11.3 8.5 74 2.2 SW 7 15 4 8 - - -
26/10:30am 11.7 8.8 8.0 78 1.8 SSW 13 24 7 13 - - -
26/10:00am 13.0 10.3 7.5 69 2.7 SW 11 22 6 12 - - -
26/09:30am 13.4 10.3 7.4 67 2.9 SW 13 19 7 10 - - -
26/09:00am 12.3 8.5 7.4 72 2.4 SW 17 26 9 14 - - -
26/08:30am 12.7 9.8 6.5 66 3.0 SW 11 17 6 9 - - -
26/08:00am 12.6 10.0 6.0 64 3.1 SW 9 15 5 8 - - -
26/07:30am 12.5 9.8 5.7 63 3.2 SSW 9 15 5 8 - - -
26/07:00am 12.7 8.8 5.4 61 3.4 SW 15 26 8 14 - - -
26/06:30am 12.7 9.6 5.4 61 3.4 SW 11 17 6 9 - - -
26/06:00am 12.5 9.5 6.1 65 3.0 SSW 11 17 6 9 - - -
26/05:30am 12.5 9.6 6.5 67 2.9 SW 11 17 6 9 - - -
26/05:00am 12.5 9.4 7.2 70 2.6 SW 13 19 7 10 - - -
26/04:30am 12.4 9.0 7.5 72 2.4 SW 15 20 8 11 - - -
26/04:00am 12.5 9.5 7.6 72 2.4 SSW 13 22 7 12 - - -
26/03:30am 12.9 9.5 7.6 70 2.6 SW 15 26 8 14 - - -
26/03:00am 13.2 9.4 7.4 68 2.8 SW 17 26 9 14 - - -
26/02:30am 13.2 9.7 7.2 67 2.9 SW 15 24 8 13 - - -
26/02:00am 13.3 9.2 7.7 69 2.7 SW 19 26 10 14 - - -
26/01:30am 12.9 9.5 7.8 71 2.5 SW 15 20 8 11 - - -
26/01:00am 13.0 9.8 8.5 74 2.2 SW 15 22 8 12 - - -
26/12:30am 13.0 9.7 9.4 79 1.8 SW 17 28 9 15 - - -
26/12:00am 12.6 10.7 10.5 87 1.1 SW 11 17 6 9 - - -
 
Date/Time
EST
Temp
°C
App
Temp
°C
Dew
Point
Rel
Hum
%
Delta-T
°C
Wind Press
QNH
hPa
Press
MSL
hPa
Rain
since 9 am
mm
Dir
 
Spd
km/h
Gust
km/h
Spd
kts
Gust
kts
25/11:30pm 13.0 9.3 10.2 83 1.4 SW 20 28 11 15 - - -
25/11:00pm 13.4 9.7 9.5 77 2.0 SW 19 28 10 15 - - -
25/10:30pm 13.6 9.8 9.8 78 2.0 SW 20 24 11 13 - - -
25/10:00pm 13.4 10.3 10.2 81 1.7 SW 17 24 9 13 - - -
25/09:30pm 13.6 11.8 10.8 83 1.5 SW 11 17 6 9 - - -
25/09:00pm 13.7 11.6 11.2 85 1.3 SW 13 20 7 11 - - -
25/08:30pm 13.7 11.7 11.6 87 1.1 SW 13 20 7 11 - - -
25/08:00pm 13.7 11.8 11.9 89 1.0 SW 13 19 7 10 - - -
25/07:30pm 13.7 13.0 11.9 89 1.0 SW 7 9 4 5 - - -
25/07:00pm 13.6 12.0 11.5 87 1.1 SW 11 19 6 10 - - -
25/06:30pm 13.9 13.2 11.4 85 1.3 SW 6 9 3 5 - - -
25/06:00pm 14.2 13.5 11.9 86 1.2 SW 7 9 4 5 - - -
25/05:30pm 14.1 13.3 11.8 86 1.2 SSW 7 13 4 7 - - -
25/05:00pm 14.2 13.1 11.9 86 1.2 SW 9 11 5 6 - - -
25/04:30pm 14.5 13.2 12.5 88 1.1 SW 11 17 6 9 - - -
25/04:00pm 14.1 13.0 12.1 88 1.1 SW 9 11 5 6 - - -
25/03:30pm 13.9 13.7 11.8 87 1.1 SSW 4 6 2 3 - - -
25/03:00pm 14.1 13.2 11.4 84 1.4 S 7 15 4 8 - - -
25/02:30pm 14.9 13.9 12.4 85 1.4 S 9 17 5 9 - - -
25/02:00pm 14.8 14.0 12.8 88 1.1 W 9 13 5 7 - - -
25/01:30pm 14.2 12.2 12.8 91 0.8 WNW 15 17 8 9 - - -
25/01:00pm 13.7 11.6 12.3 91 0.8 NW 15 17 8 9 - - -
25/12:30pm 13.4 12.3 12.0 91 0.8 NW 9 13 5 7 - - -
25/12:00pm 13.3 11.4 11.7 90 0.9 WNW 13 15 7 8 - - -
25/11:30am 13.3 10.0 11.5 89 1.0 NW 20 22 11 12 - - -
25/11:00am 13.7 11.3 11.4 86 1.2 NNW 15 22 8 12 - - -
25/10:30am 13.9 12.2 11.2 84 1.4 N 11 17 6 9 - - -
25/10:00am 14.1 13.4 11.3 83 1.5 NNW 6 7 3 4 - - -
25/09:30am 13.9 13.5 11.1 83 1.5 WSW 4 6 2 3 - - -
25/09:00am 13.8 14.2 11.1 84 1.4 CALM 0 0 0 0 - - -
25/08:30am 13.6 13.1 10.8 83 1.5 SSW 4 6 2 3 - - -
25/08:00am 13.8 12.8 11.0 83 1.5 WNW 7 9 4 5 - - -
25/07:30am 13.7 11.9 10.9 83 1.5 WNW 11 13 6 7 - - -
25/07:00am 13.6 11.0 10.8 83 1.5 W 15 17 8 9 - - -
25/06:30am 13.5 11.0 10.9 84 1.4 WSW 15 19 8 10 - - -
25/06:00am 13.2 9.8 10.6 84 1.4 WSW 19 22 10 12 - - -
25/05:30am 13.1 9.7 10.5 84 1.4 W 19 22 10 12 - - -
25/05:00am 13.4 9.9 10.8 84 1.4 WNW 20 24 11 13 - - -
25/04:30am 13.8 10.6 11.3 85 1.3 W 19 20 10 11 - - -
25/04:00am 13.7 10.9 11.2 85 1.3 WNW 17 20 9 11 - - -
25/03:30am 13.9 11.8 11.1 83 1.5 WNW 13 20 7 11 - - -
25/03:00am 14.3 13.4 11.3 82 1.6 NW 7 11 4 6 - - -
25/02:30am 14.2 13.3 11.2 82 1.6 WNW 7 11 4 6 - - -
25/02:00am 14.2 12.0 10.8 80 1.8 WNW 13 17 7 9 - - -
25/01:30am 14.4 11.4 10.6 78 2.0 WNW 17 20 9 11 - - -
25/01:00am 14.2 11.0 11.2 82 1.6 WNW 19 24 10 13 - - -
25/12:30am 14.2 12.4 12.1 87 1.1 NW 13 17 7 9 - - -
25/12:00am 14.1 12.3 12.1 88 1.1 WNW 13 17 7 9 - - -
 
Date/Time
EST
Temp
°C
App
Temp
°C
Dew
Point
Rel
Hum
%
Delta-T
°C
Wind Press
QNH
hPa
Press
MSL
hPa
Rain
since 9 am
mm
Dir
 
Spd
km/h
Gust
km/h
Spd
kts
Gust
kts
24/11:30pm 14.0 13.0 12.4 90 0.9 WSW 9 15 5 8 - - -
24/11:00pm 13.8 12.3 12.0 89 1.0 WSW 11 15 6 8 - - -
24/10:30pm 13.3 9.5 11.2 87 1.1 W 22 30 12 16 - - -
24/10:10pm 15.1 13.7 12.2 83 1.6 NNE 11 37 6 20 - - -
24/10:00pm 15.2 15.6 12.5 84 1.5 E 2 6 1 3 - - -
24/09:30pm 15.5 15.6 12.6 83 1.6 ENE 4 6 2 3 - - -
24/09:00pm 15.8 15.9 12.7 82 1.7 E 4 6 2 3 - - -
24/08:30pm 16.0 16.1 12.6 80 1.9 E 4 6 2 3 - - -
24/08:00pm 16.5 16.4 12.1 75 2.4 ENE 4 9 2 5 - - -
24/07:30pm 17.1 17.0 12.2 73 2.7 NE 4 7 2 4 - - -
24/07:00pm 16.9 17.2 12.2 74 2.6 S 2 4 1 2 - - -
24/06:30pm 17.1 17.1 12.4 74 2.6 SSW 4 7 2 4 - - -
24/06:00pm 17.0 15.9 13.1 78 2.2 WSW 11 15 6 8 - - -
24/05:30pm 17.1 15.5 12.8 76 2.4 W 13 17 7 9 - - -
24/05:00pm 17.1 15.1 12.6 75 2.5 W 15 19 8 10 - - -
24/04:30pm 17.1 15.4 12.6 75 2.5 WSW 13 17 7 9 - - -
24/04:00pm 17.0 15.8 12.9 77 2.3 WSW 11 13 6 7 - - -
24/03:30pm 16.7 16.1 13.4 81 1.9 W 9 13 5 7 - - -
24/03:00pm 16.5 15.4 13.0 80 1.9 W 11 11 6 6 - - -
24/02:30pm 16.1 14.6 13.0 82 1.7 W 13 15 7 8 - - -
24/02:00pm 16.0 14.0 12.7 81 1.8 W 15 17 8 9 - - -
24/01:30pm 15.7 13.8 13.0 84 1.5 W 15 15 8 8 - - -
24/01:00pm 15.4 14.0 12.3 82 1.7 W 11 13 6 7 - - -
24/12:30pm 15.4 14.1 12.5 83 1.6 W 11 13 6 7 - - -
24/12:00pm 15.3 13.7 12.8 85 1.4 WNW 13 15 7 8 - - -
24/11:30am 15.1 12.7 12.8 86 1.3 NW 17 19 9 10 - - -
24/11:00am 15.2 13.6 12.9 86 1.3 NW 13 15 7 8 - - -
24/10:30am 15.0 12.6 12.7 86 1.3 NW 17 20 9 11 - - -
24/10:00am 15.1 12.3 12.6 85 1.4 NW 19 20 10 11 - - -
24/09:30am 15.3 12.9 12.6 84 1.5 NNW 17 20 9 11 - - -
24/09:00am 15.5 13.9 12.8 84 1.5 NW 13 17 7 9 - - -
24/08:30am 15.3 13.3 12.8 85 1.4 NNW 15 17 8 9 - - -
24/08:00am 15.4 13.6 13.2 87 1.2 NNW 15 17 8 9 - - -
24/07:30am 15.5 13.8 13.5 88 1.1 NNW 15 17 8 9 - - -
24/07:00am 15.7 14.0 13.5 87 1.2 NW 15 17 8 9 - - -
24/06:30am 15.9 14.0 14.1 89 1.0 NW 17 20 9 11 - - -
24/06:00am 15.7 14.9 14.1 90 0.9 NW 11 13 6 7 - - -
24/05:30am 15.7 15.3 14.1 90 0.9 NNW 9 11 5 6 - - -

Other Formats:

Comma delimited format used in spreadsheet applications
http://www.bom.gov.au/fwo/IDV60801/IDV60801.94871.axf

JavaScript Object Notation format (JSON) in row-major order
http://www.bom.gov.au/fwo/IDV60801/IDV60801.94871.json